createdAt,value
2023-02-11T00:00:05.964Z,73.27
2023-02-11T00:00:18.239Z,72.36
2023-02-11T00:00:30.210Z,73.10
2023-02-11T00:00:42.771Z,72.53
2023-02-11T00:00:54.702Z,73.00
2023-02-11T00:01:11.918Z,73.03
2023-02-11T00:01:29.716Z,73.07
2023-02-11T00:01:41.701Z,73.00
2023-02-11T00:01:53.707Z,73.22
2023-02-11T00:02:06.772Z,72.73
2023-02-11T00:02:18.774Z,72.40
2023-02-11T00:02:32.430Z,72.53
2023-02-11T00:02:46.846Z,72.61
2023-02-11T00:02:59.930Z,72.73
2023-02-11T00:03:14.551Z,72.70
2023-02-11T00:03:26.720Z,73.06
2023-02-11T00:03:38.897Z,72.59
2023-02-11T00:03:51.450Z,72.81
2023-02-11T00:04:04.655Z,73.21
2023-02-11T00:04:16.874Z,72.60
2023-02-11T00:04:28.817Z,72.43
2023-02-11T00:04:40.728Z,72.66
2023-02-11T00:04:52.788Z,72.80
2023-02-11T00:05:05.359Z,72.88
2023-02-11T00:05:19.905Z,72.59
2023-02-11T00:05:31.895Z,73.26
2023-02-11T00:05:43.895Z,72.75
2023-02-11T00:06:04.187Z,72.57
2023-02-11T00:06:16.702Z,72.60
2023-02-11T00:06:30.563Z,73.07
2023-02-11T00:06:42.899Z,72.59
2023-02-11T00:06:55.354Z,72.39
2023-02-11T00:07:07.535Z,72.28
2023-02-11T00:07:19.524Z,72.86
2023-02-11T00:07:32.569Z,73.15
2023-02-11T00:07:44.710Z,73.08
2023-02-11T00:07:57.131Z,72.38
2023-02-11T00:08:09.112Z,72.79
2023-02-11T00:08:21.080Z,72.73
2023-02-11T00:08:36.277Z,72.79
2023-02-11T00:08:48.286Z,72.41
2023-02-11T00:09:00.889Z,72.46
2023-02-11T00:09:12.840Z,72.35
2023-02-11T00:09:24.766Z,72.10
2023-02-11T00:09:39.152Z,72.30
2023-02-11T00:09:51.248Z,72.33
2023-02-11T00:10:07.773Z,72.53
2023-02-11T00:10:19.674Z,72.84
2023-02-11T00:10:31.676Z,72.93
2023-02-11T00:10:46.294Z,72.63
2023-02-11T00:10:58.828Z,73.14
2023-02-11T00:11:18.757Z,73.22
2023-02-11T00:11:30.852Z,73.47
2023-02-11T00:11:42.874Z,72.61
2023-02-11T00:11:54.805Z,72.87
2023-02-11T00:12:06.823Z,72.95
2023-02-11T00:12:19.593Z,73.27
2023-02-11T00:12:31.622Z,72.93
2023-02-11T00:12:43.653Z,73.22
2023-02-11T00:12:55.960Z,73.22
2023-02-11T00:13:07.904Z,73.08
2023-02-11T00:13:19.891Z,73.07
2023-02-11T00:13:31.883Z,73.30
2023-02-11T00:13:45.055Z,72.33
2023-02-11T00:14:02.299Z,73.14
2023-02-11T00:14:14.291Z,73.31
2023-02-11T00:14:26.699Z,72.58
2023-02-11T00:14:38.633Z,73.25
2023-02-11T00:14:53.142Z,72.55
2023-02-11T00:15:07.636Z,72.46
2023-02-11T00:15:21.075Z,72.54
2023-02-11T00:15:33.016Z,73.10
2023-02-11T00:15:44.972Z,72.59
2023-02-11T00:15:57.166Z,72.68
2023-02-11T00:16:12.373Z,72.89
2023-02-11T00:16:24.391Z,72.96
2023-02-11T00:16:36.532Z,72.53
2023-02-11T00:16:48.529Z,72.95
2023-02-11T00:17:00.648Z,72.48
2023-02-11T00:17:12.840Z,72.44
2023-02-11T00:17:24.818Z,72.96
2023-02-11T00:17:37.036Z,72.07
2023-02-11T00:17:48.994Z,72.84
2023-02-11T00:18:00.952Z,72.58
2023-02-11T00:18:12.896Z,72.55
2023-02-11T00:18:24.812Z,72.46
2023-02-11T00:18:38.345Z,72.60
2023-02-11T00:18:52.885Z,72.81
2023-02-11T00:19:06.578Z,72.10
2023-02-11T00:19:18.586Z,72.11
2023-02-11T00:19:30.656Z,72.92
2023-02-11T00:19:42.658Z,72.52
2023-02-11T00:19:54.690Z,72.48
2023-02-11T00:20:08.305Z,72.23
2023-02-11T00:20:20.328Z,72.49
2023-02-11T00:20:32.265Z,72.10
2023-02-11T00:20:44.355Z,72.74
2023-02-11T00:20:56.328Z,73.02
2023-02-11T00:21:16.209Z,72.75
2023-02-11T00:21:29.309Z,72.78
2023-02-11T00:21:41.392Z,72.86
2023-02-11T00:21:53.471Z,72.97
2023-02-11T00:22:05.938Z,72.42
2023-02-11T00:22:18.554Z,72.55
2023-02-11T00:22:30.796Z,73.08
2023-02-11T00:22:42.786Z,72.93
2023-02-11T00:22:54.725Z,73.15
2023-02-11T00:23:06.863Z,72.96
2023-02-11T00:23:19.038Z,73.11
2023-02-11T00:23:31.091Z,73.32
2023-02-11T00:23:43.667Z,73.06
2023-02-11T00:23:57.169Z,72.98
2023-02-11T00:24:09.154Z,72.99
2023-02-11T00:24:21.088Z,73.71
2023-02-11T00:24:33.113Z,73.51
2023-02-11T00:24:45.045Z,73.44
2023-02-11T00:24:57.156Z,73.72
2023-02-11T00:25:09.205Z,73.88
2023-02-11T00:25:21.260Z,72.95
2023-02-11T00:25:33.316Z,73.75
2023-02-11T00:25:45.959Z,73.76
2023-02-11T00:25:57.874Z,73.19
2023-02-11T00:26:19.021Z,73.65
2023-02-11T00:26:33.958Z,73.22
2023-02-11T00:26:45.881Z,73.48
2023-02-11T00:26:57.935Z,72.92
2023-02-11T00:27:09.901Z,73.24
2023-02-11T00:27:21.830Z,72.88
2023-02-11T00:27:33.834Z,73.42
2023-02-11T00:27:45.807Z,73.19
2023-02-11T00:27:57.789Z,72.79
2023-02-11T00:28:10.417Z,73.52
2023-02-11T00:28:22.366Z,73.56
2023-02-11T00:28:34.405Z,73.11
2023-02-11T00:28:47.090Z,72.78
2023-02-11T00:29:00.705Z,72.81
2023-02-11T00:29:12.602Z,73.17
2023-02-11T00:29:24.658Z,72.88
2023-02-11T00:29:37.662Z,73.07
2023-02-11T00:29:49.626Z,72.95
2023-02-11T00:30:02.563Z,72.98
2023-02-11T00:30:14.546Z,72.48
2023-02-11T00:30:26.572Z,73.17
2023-02-11T00:30:38.769Z,73.25
2023-02-11T00:31:01.618Z,72.80
2023-02-11T00:31:15.498Z,73.22
2023-02-11T00:31:29.559Z,72.82
2023-02-11T00:31:41.837Z,73.15
2023-02-11T00:31:54.031Z,73.00
2023-02-11T00:32:06.552Z,72.55
2023-02-11T00:32:18.580Z,72.64
2023-02-11T00:32:30.544Z,73.13
2023-02-11T00:32:42.605Z,72.22
2023-02-11T00:32:54.682Z,72.47
2023-02-11T00:33:09.741Z,72.08
2023-02-11T00:33:22.216Z,72.32
2023-02-11T00:33:34.169Z,72.51
2023-02-11T00:33:46.436Z,72.24
2023-02-11T00:33:58.419Z,72.88
2023-02-11T00:34:10.372Z,72.47
2023-02-11T00:34:22.296Z,72.68
2023-02-11T00:34:36.054Z,72.53
2023-02-11T00:34:48.124Z,72.09
2023-02-11T00:35:00.059Z,72.73
2023-02-11T00:35:12.083Z,71.92
2023-02-11T00:35:24.002Z,72.53
2023-02-11T00:35:38.573Z,72.77
2023-02-11T00:35:50.820Z,72.42
2023-02-11T00:36:08.367Z,72.14
2023-02-11T00:36:25.968Z,72.74
2023-02-11T00:36:37.877Z,72.25
2023-02-11T00:36:52.433Z,72.25
2023-02-11T00:37:05.352Z,72.63
2023-02-11T00:37:17.272Z,72.18
2023-02-11T00:37:29.295Z,72.86
2023-02-11T00:37:41.276Z,72.25
2023-02-11T00:37:54.302Z,72.61
2023-02-11T00:38:07.424Z,72.19
2023-02-11T00:38:19.461Z,73.22
2023-02-11T00:38:31.392Z,72.74
2023-02-11T00:38:44.343Z,72.79
2023-02-11T00:38:57.373Z,73.10
2023-02-11T00:39:09.384Z,73.21
2023-02-11T00:39:21.352Z,72.99
2023-02-11T00:39:33.311Z,72.37
2023-02-11T00:39:45.220Z,72.38
2023-02-11T00:39:57.175Z,72.70
2023-02-11T00:40:09.721Z,72.07
2023-02-11T00:40:22.554Z,72.70
2023-02-11T00:40:34.515Z,72.40
2023-02-11T00:40:46.441Z,73.55
2023-02-11T00:40:58.427Z,73.07
2023-02-11T00:41:11.653Z,73.78
2023-02-11T00:41:23.738Z,73.76
2023-02-11T00:41:35.872Z,73.89
2023-02-11T00:41:47.852Z,74.02
2023-02-11T00:41:59.806Z,74.36
2023-02-11T00:42:15.035Z,73.84
2023-02-11T00:42:26.990Z,74.39
2023-02-11T00:42:38.927Z,73.83
2023-02-11T00:42:50.867Z,74.22
2023-02-11T00:43:02.876Z,74.04
2023-02-11T00:43:14.777Z,74.02
2023-02-11T00:43:26.789Z,74.05
2023-02-11T00:43:39.339Z,74.55
2023-02-11T00:43:54.397Z,74.41
2023-02-11T00:44:06.308Z,74.49
2023-02-11T00:44:21.349Z,74.83
2023-02-11T00:44:33.256Z,74.85
2023-02-11T00:44:45.194Z,74.53
2023-02-11T00:44:57.425Z,74.52
2023-02-11T00:45:09.899Z,74.75
2023-02-11T00:45:21.918Z,74.81
2023-02-11T00:45:33.816Z,75.14
2023-02-11T00:45:45.868Z,75.18
2023-02-11T00:45:57.833Z,74.88
2023-02-11T00:46:10.066Z,74.96
2023-02-11T00:46:22.677Z,74.82
2023-02-11T00:46:35.045Z,74.40
2023-02-11T00:46:47.139Z,74.36
2023-02-11T00:46:59.085Z,73.89
2023-02-11T00:47:11.197Z,74.05
2023-02-11T00:47:23.415Z,73.50
2023-02-11T00:47:35.879Z,73.98
2023-02-11T00:47:48.087Z,74.00
2023-02-11T00:48:00.010Z,73.20
2023-02-11T00:48:11.909Z,73.79
2023-02-11T00:48:23.834Z,73.57
2023-02-11T00:48:36.071Z,73.34
2023-02-11T00:48:48.865Z,73.49
2023-02-11T00:49:00.818Z,73.97
2023-02-11T00:49:12.745Z,73.68
2023-02-11T00:49:25.299Z,73.70
2023-02-11T00:49:39.572Z,74.10
2023-02-11T00:49:51.510Z,74.29
2023-02-11T00:50:05.479Z,74.37
2023-02-11T00:50:17.438Z,74.83
2023-02-11T00:50:29.388Z,74.61
2023-02-11T00:50:43.767Z,74.33
2023-02-11T00:50:55.685Z,74.25
2023-02-11T00:51:08.241Z,74.17
2023-02-11T00:51:23.202Z,74.74
2023-02-11T00:51:35.202Z,74.74
2023-02-11T00:51:47.197Z,74.82
2023-02-11T00:51:59.151Z,75.02
2023-02-11T00:52:11.149Z,75.07
2023-02-11T00:52:23.082Z,74.77
2023-02-11T00:52:35.303Z,75.01
2023-02-11T00:52:47.233Z,75.00
2023-02-11T00:52:59.257Z,74.97
2023-02-11T00:53:11.241Z,74.82
2023-02-11T00:53:23.151Z,74.78
2023-02-11T00:53:35.837Z,74.78
2023-02-11T00:53:47.765Z,74.61
2023-02-11T00:53:59.747Z,74.79
2023-02-11T00:54:11.758Z,75.03
2023-02-11T00:54:23.823Z,75.44
2023-02-11T00:54:35.804Z,75.67
2023-02-11T00:54:47.746Z,76.19
2023-02-11T00:54:59.762Z,76.13
2023-02-11T00:55:11.770Z,75.84
2023-02-11T00:55:23.756Z,76.31
2023-02-11T00:55:35.770Z,76.32
2023-02-11T00:55:47.909Z,76.00
2023-02-11T00:56:01.174Z,76.45
2023-02-11T00:56:13.198Z,76.41
2023-02-11T00:56:25.290Z,76.55
2023-02-11T00:56:37.328Z,76.18
2023-02-11T00:56:49.838Z,76.56
2023-02-11T00:57:01.875Z,76.29
2023-02-11T00:57:13.853Z,76.09
2023-02-11T00:57:25.875Z,76.39
2023-02-11T00:57:37.897Z,76.13
2023-02-11T00:57:49.953Z,76.41
2023-02-11T00:58:02.009Z,76.67
2023-02-11T00:58:14.188Z,76.35
2023-02-11T00:58:26.352Z,76.19
2023-02-11T00:58:38.531Z,76.43
2023-02-11T00:58:50.797Z,75.78
2023-02-11T00:59:02.729Z,76.12
2023-02-11T00:59:14.737Z,76.13
2023-02-11T00:59:27.009Z,76.56
2023-02-11T00:59:38.977Z,76.93
2023-02-11T00:59:50.926Z,77.23
2023-02-11T01:00:05.104Z,77.38
2023-02-11T01:00:17.293Z,77.72
2023-02-11T01:00:29.274Z,78.10
2023-02-11T01:00:41.209Z,78.34
2023-02-11T01:00:54.900Z,77.86
2023-02-11T01:01:07.698Z,77.90
2023-02-11T01:01:19.847Z,78.38
2023-02-11T01:01:31.945Z,78.60
2023-02-11T01:01:43.854Z,78.64
2023-02-11T01:01:55.889Z,78.75
2023-02-11T01:02:07.792Z,78.50
2023-02-11T01:02:19.715Z,79.08
2023-02-11T01:02:31.768Z,78.98
2023-02-11T01:02:43.716Z,79.41
2023-02-11T01:02:55.951Z,79.57
2023-02-11T01:03:07.900Z,79.29
2023-02-11T01:03:19.870Z,78.92
2023-02-11T01:03:31.878Z,78.63
2023-02-11T01:03:43.940Z,78.65
2023-02-11T01:03:55.881Z,78.93
2023-02-11T01:04:07.835Z,78.95
2023-02-11T01:04:19.798Z,78.14
2023-02-11T01:04:31.734Z,77.97
2023-02-11T01:04:43.637Z,77.81
2023-02-11T01:04:55.580Z,77.77
2023-02-11T01:05:08.177Z,77.38
2023-02-11T01:05:21.386Z,77.22
2023-02-11T01:05:33.585Z,77.31
2023-02-11T01:05:45.629Z,76.94
2023-02-11T01:05:57.545Z,76.55
2023-02-11T01:06:10.135Z,76.58
2023-02-11T01:06:22.122Z,76.48
2023-02-11T01:06:34.118Z,76.39
2023-02-11T01:06:46.069Z,76.23
2023-02-11T01:06:57.994Z,76.31
2023-02-11T01:07:09.931Z,76.17
2023-02-11T01:07:21.901Z,76.11
2023-02-11T01:07:33.869Z,76.13
2023-02-11T01:07:46.039Z,75.73
2023-02-11T01:07:58.493Z,76.01
2023-02-11T01:08:10.484Z,75.44
2023-02-11T01:08:22.842Z,75.39
2023-02-11T01:08:34.925Z,75.76
2023-02-11T01:08:46.867Z,75.61
2023-02-11T01:08:58.853Z,75.28
2023-02-11T01:09:10.818Z,75.11
2023-02-11T01:09:22.812Z,75.88
2023-02-11T01:09:34.741Z,76.05
2023-02-11T01:09:46.665Z,75.24
2023-02-11T01:09:58.639Z,74.97
2023-02-11T01:10:11.643Z,75.29
2023-02-11T01:10:23.657Z,75.32
2023-02-11T01:10:35.621Z,75.24
2023-02-11T01:11:12.047Z,75.49
2023-02-11T01:11:24.162Z,75.06
2023-02-11T01:11:36.293Z,75.31
2023-02-11T01:11:48.325Z,75.30
2023-02-11T01:12:00.442Z,75.03
2023-02-11T01:12:12.432Z,75.12
2023-02-11T01:12:24.851Z,75.17
2023-02-11T01:12:36.984Z,75.13
2023-02-11T01:12:48.924Z,75.40
2023-02-11T01:13:01.722Z,75.45
2023-02-11T01:13:13.718Z,75.56
2023-02-11T01:13:27.110Z,75.11
2023-02-11T01:13:39.283Z,75.40
2023-02-11T01:13:51.243Z,75.45
2023-02-11T01:14:03.574Z,75.03
2023-02-11T01:14:15.630Z,75.30
2023-02-11T01:14:27.620Z,75.53
2023-02-11T01:14:39.549Z,75.31
2023-02-11T01:14:51.935Z,75.18
2023-02-11T01:15:06.378Z,75.40
2023-02-11T01:15:19.806Z,75.31
2023-02-11T01:15:32.288Z,75.87
2023-02-11T01:15:44.285Z,75.66
2023-02-11T01:15:57.381Z,75.59
2023-02-11T01:16:10.810Z,75.80
2023-02-11T01:16:22.867Z,75.65
2023-02-11T01:16:34.857Z,75.49
2023-02-11T01:16:46.780Z,75.54
2023-02-11T01:16:58.691Z,75.59
2023-02-11T01:17:10.713Z,75.60
2023-02-11T01:17:23.277Z,75.71
2023-02-11T01:17:36.113Z,75.32
2023-02-11T01:17:49.985Z,75.34
2023-02-11T01:18:01.938Z,75.54
2023-02-11T01:18:13.893Z,75.33
2023-02-11T01:18:27.060Z,75.32
2023-02-11T01:18:39.477Z,75.35
2023-02-11T01:18:51.432Z,75.48
2023-02-11T01:19:03.458Z,75.68
2023-02-11T01:19:15.368Z,75.33
2023-02-11T01:19:27.255Z,76.24
2023-02-11T01:19:39.441Z,75.96
2023-02-11T01:19:51.400Z,76.02
2023-02-11T01:20:06.404Z,76.28
2023-02-11T01:20:22.399Z,75.83
2023-02-11T01:20:34.373Z,76.06
2023-02-11T01:20:46.462Z,76.47
2023-02-11T01:20:58.402Z,75.57
2023-02-11T01:21:11.005Z,76.10
2023-02-11T01:21:22.994Z,76.22
2023-02-11T01:21:35.037Z,75.92
2023-02-11T01:21:46.970Z,76.40
2023-02-11T01:21:58.984Z,76.21
2023-02-11T01:22:10.967Z,75.52
2023-02-11T01:22:22.955Z,75.32
2023-02-11T01:22:37.334Z,75.25
2023-02-11T01:22:49.295Z,75.57
2023-02-11T01:23:01.199Z,75.85
2023-02-11T01:23:13.957Z,75.79
2023-02-11T01:23:26.226Z,75.44
2023-02-11T01:23:38.186Z,75.27
2023-02-11T01:23:50.149Z,74.97
2023-02-11T01:24:02.102Z,75.04
2023-02-11T01:24:14.124Z,75.17
2023-02-11T01:24:26.053Z,76.20
2023-02-11T01:24:38.054Z,75.46
2023-02-11T01:24:49.946Z,75.51
2023-02-11T01:25:01.838Z,76.05
2023-02-11T01:25:13.801Z,76.60
2023-02-11T01:25:25.738Z,76.18
2023-02-11T01:25:37.654Z,75.65
2023-02-11T01:25:52.812Z,75.92
2023-02-11T01:26:05.453Z,76.49
2023-02-11T01:26:17.381Z,76.66
2023-02-11T01:26:29.411Z,76.88
2023-02-11T01:26:41.385Z,77.18
2023-02-11T01:26:53.332Z,77.00
2023-02-11T01:27:05.369Z,76.40
2023-02-11T01:27:17.364Z,77.19
2023-02-11T01:27:29.286Z,76.89
2023-02-11T01:27:41.392Z,76.85
2023-02-11T01:27:53.348Z,77.77
2023-02-11T01:28:05.652Z,77.73
2023-02-11T01:28:22.054Z,77.54
2023-02-11T01:28:34.109Z,76.81
2023-02-11T01:28:46.124Z,77.54
2023-02-11T01:29:00.029Z,76.63
2023-02-11T01:29:12.014Z,76.87
2023-02-11T01:29:24.139Z,76.16
2023-02-11T01:29:36.095Z,76.29
2023-02-11T01:29:48.007Z,75.56
2023-02-11T01:30:00.201Z,76.02
2023-02-11T01:30:13.967Z,76.39
2023-02-11T01:30:26.077Z,75.95
2023-02-11T01:30:37.987Z,75.56
2023-02-11T01:30:50.621Z,76.24
2023-02-11T01:31:03.424Z,76.09
2023-02-11T01:31:15.488Z,75.50
2023-02-11T01:31:27.717Z,75.32
2023-02-11T01:31:39.826Z,75.20
2023-02-11T01:31:52.627Z,75.19
2023-02-11T01:32:04.818Z,75.89
2023-02-11T01:32:16.861Z,75.80
2023-02-11T01:32:28.834Z,75.62
2023-02-11T01:32:40.889Z,75.39
2023-02-11T01:32:52.837Z,75.53
2023-02-11T01:33:04.754Z,75.41
2023-02-11T01:33:17.176Z,75.83
2023-02-11T01:33:29.477Z,75.56
2023-02-11T01:33:41.788Z,75.30
2023-02-11T01:33:53.706Z,75.48
2023-02-11T01:34:06.696Z,75.90
2023-02-11T01:34:18.647Z,75.16
2023-02-11T01:34:30.774Z,74.89
2023-02-11T01:34:42.681Z,75.16
2023-02-11T01:34:54.959Z,74.45
2023-02-11T01:35:07.489Z,74.76
2023-02-11T01:35:19.452Z,74.31
2023-02-11T01:35:31.402Z,74.68
2023-02-11T01:35:44.579Z,74.86
2023-02-11T01:36:00.575Z,74.71
2023-02-11T01:36:13.056Z,73.87
2023-02-11T01:36:25.100Z,74.89
2023-02-11T01:36:37.322Z,74.14
2023-02-11T01:36:49.279Z,74.99
2023-02-11T01:37:01.240Z,74.72
2023-02-11T01:37:13.227Z,75.39
2023-02-11T01:37:26.115Z,75.00
2023-02-11T01:37:38.077Z,74.82
2023-02-11T01:37:49.986Z,74.78
2023-02-11T01:38:02.079Z,75.27
2023-02-11T01:38:17.502Z,74.90
2023-02-11T01:38:29.798Z,74.13
2023-02-11T01:38:41.851Z,74.81
2023-02-11T01:38:53.752Z,74.40
2023-02-11T01:39:05.726Z,74.48
2023-02-11T01:39:17.763Z,74.28
2023-02-11T01:39:33.227Z,74.48
2023-02-11T01:39:45.179Z,73.80
2023-02-11T01:39:57.110Z,74.37
2023-02-11T01:40:14.155Z,74.10
2023-02-11T01:40:26.112Z,74.48
2023-02-11T01:40:38.033Z,74.38
2023-02-11T01:40:52.976Z,74.17
2023-02-11T01:41:10.857Z,74.47
2023-02-11T01:41:22.773Z,74.50
2023-02-11T01:41:35.805Z,73.95
2023-02-11T01:41:47.745Z,74.47
2023-02-11T01:41:59.656Z,74.20
2023-02-11T01:42:16.089Z,74.02
2023-02-11T01:42:28.690Z,74.72
2023-02-11T01:42:41.172Z,74.25
2023-02-11T01:42:53.082Z,74.79
2023-02-11T01:43:05.357Z,74.48
2023-02-11T01:43:17.752Z,74.54
2023-02-11T01:43:34.506Z,75.00
2023-02-11T01:43:49.280Z,74.36
2023-02-11T01:44:22.815Z,74.60
2023-02-11T01:44:38.241Z,75.40
2023-02-11T01:44:52.289Z,75.27
2023-02-11T01:45:42.493Z,75.24
2023-02-11T01:46:17.851Z,75.00
2023-02-11T01:46:36.211Z,75.01
2023-02-11T01:46:48.333Z,74.29
2023-02-11T01:47:01.343Z,74.19
2023-02-11T01:47:13.306Z,73.64
2023-02-11T01:47:25.377Z,73.86
2023-02-11T01:47:37.299Z,73.54
2023-02-11T01:47:49.181Z,73.51
2023-02-11T01:48:02.417Z,74.17
2023-02-11T01:48:22.578Z,74.19
2023-02-11T01:48:38.638Z,73.97
2023-02-11T01:48:55.542Z,74.00
2023-02-11T01:49:12.405Z,74.32
2023-02-11T01:49:38.476Z,74.80
2023-02-11T01:49:57.356Z,74.37
2023-02-11T01:50:09.482Z,74.66
2023-02-11T01:50:21.410Z,74.74
2023-02-11T01:50:34.098Z,74.45
2023-02-11T01:50:50.495Z,74.23
2023-02-11T01:51:21.226Z,73.98
2023-02-11T01:51:39.149Z,74.06
2023-02-11T01:51:53.750Z,73.99
2023-02-11T01:52:30.423Z,73.95
2023-02-11T01:52:43.548Z,73.15
2023-02-11T01:53:15.566Z,73.04
2023-02-11T01:53:51.033Z,73.37
2023-02-11T01:54:24.275Z,72.83
2023-02-11T01:55:02.784Z,72.70
2023-02-11T01:55:33.595Z,72.67
2023-02-11T01:56:04.376Z,72.55
2023-02-11T01:56:36.684Z,71.73
2023-02-11T01:57:10.632Z,72.28
2023-02-11T01:57:26.407Z,71.89
2023-02-11T01:57:41.465Z,71.61
2023-02-11T01:57:56.986Z,72.04
2023-02-11T01:58:09.000Z,72.02
2023-02-11T01:58:21.114Z,71.52
2023-02-11T01:58:38.771Z,71.61
2023-02-11T01:58:51.943Z,72.02
2023-02-11T01:59:12.671Z,71.70
2023-02-11T01:59:30.427Z,71.12
2023-02-11T01:59:56.189Z,71.34
2023-02-11T02:00:24.086Z,71.49
2023-02-11T02:00:38.813Z,70.60
2023-02-11T02:00:50.932Z,70.80
2023-02-11T02:01:06.872Z,71.10
2023-02-11T02:01:25.545Z,71.11
2023-02-11T02:01:39.444Z,70.64
2023-02-11T02:02:00.628Z,70.68
2023-02-11T02:02:15.163Z,70.87
2023-02-11T02:02:37.324Z,71.07
2023-02-11T02:02:58.662Z,70.49
2023-02-11T02:03:20.154Z,70.66
2023-02-11T02:03:36.627Z,70.43
2023-02-11T02:03:56.304Z,70.38
2023-02-11T02:04:10.230Z,70.71
2023-02-11T02:04:27.274Z,70.62
2023-02-11T02:04:46.585Z,70.01
2023-02-11T02:05:30.528Z,69.91
2023-02-11T02:05:51.778Z,70.07
2023-02-11T02:06:10.933Z,69.85
2023-02-11T02:06:29.866Z,69.88
2023-02-11T02:06:52.833Z,70.03
2023-02-11T02:07:17.185Z,69.50
2023-02-11T02:07:37.244Z,69.92
2023-02-11T02:08:07.214Z,69.58
2023-02-11T02:08:35.332Z,70.06
2023-02-11T02:08:56.497Z,70.04
2023-02-11T02:09:16.998Z,70.00
2023-02-11T02:09:33.095Z,69.90
2023-02-11T02:09:55.857Z,69.67
2023-02-11T02:10:13.917Z,69.55
2023-02-11T02:10:28.053Z,69.65
2023-02-11T02:10:46.345Z,69.18
2023-02-11T02:11:00.878Z,69.03
2023-02-11T02:11:13.024Z,69.20
2023-02-11T02:11:26.213Z,68.97
2023-02-11T02:11:38.276Z,69.03
2023-02-11T02:11:50.750Z,69.42
2023-02-11T02:12:02.761Z,68.86
2023-02-11T02:12:14.710Z,69.08
2023-02-11T02:12:26.636Z,69.49
2023-02-11T02:12:38.676Z,70.23
2023-02-11T02:12:55.230Z,69.95
2023-02-11T02:13:09.308Z,69.46
2023-02-11T02:13:21.224Z,69.34
2023-02-11T02:13:35.304Z,69.66
2023-02-11T02:13:47.268Z,69.39
2023-02-11T02:14:01.613Z,69.17
2023-02-11T02:14:13.576Z,69.02
2023-02-11T02:14:26.556Z,69.34
2023-02-11T02:14:40.431Z,69.51
2023-02-11T02:14:52.359Z,69.71
2023-02-11T02:15:31.874Z,69.96
2023-02-11T02:16:12.298Z,69.77
2023-02-11T02:16:31.460Z,69.38
2023-02-11T02:16:44.657Z,69.61
2023-02-11T02:16:56.693Z,69.38
2023-02-11T02:17:26.662Z,68.92
2023-02-11T02:17:50.938Z,69.10
2023-02-11T02:18:32.889Z,68.51
2023-02-11T02:19:03.357Z,68.17
2023-02-11T02:19:37.140Z,68.00
2023-02-11T02:20:19.663Z,67.77
2023-02-11T02:21:16.348Z,69.71
2023-02-11T02:21:46.330Z,70.65
2023-02-11T02:22:19.714Z,70.81
2023-02-11T02:22:37.341Z,71.54
2023-02-11T02:23:04.270Z,71.61
2023-02-11T02:23:26.473Z,71.15
2023-02-11T02:24:01.034Z,71.97
2023-02-11T02:24:34.498Z,71.33
2023-02-11T02:25:17.516Z,70.79
2023-02-11T02:25:44.225Z,70.58
2023-02-11T02:26:21.885Z,70.10
2023-02-11T02:26:45.756Z,70.00
2023-02-11T02:27:18.792Z,70.51
2023-02-11T02:28:14.468Z,70.61
2023-02-11T02:28:58.447Z,71.24
2023-02-11T02:29:28.677Z,71.01
2023-02-11T02:30:02.174Z,70.56
2023-02-11T02:30:28.807Z,69.74
2023-02-11T02:30:53.207Z,69.76
2023-02-11T02:31:07.986Z,69.61
2023-02-11T02:31:38.854Z,69.84
2023-02-11T02:32:12.622Z,69.58
2023-02-11T02:32:36.386Z,69.68
2023-02-11T02:33:22.523Z,70.01
2023-02-11T02:33:55.631Z,71.50
2023-02-11T02:34:20.794Z,71.76
2023-02-11T02:34:44.530Z,71.28
2023-02-11T02:35:09.576Z,71.57
2023-02-11T02:35:30.288Z,71.11
2023-02-11T02:35:59.048Z,71.17
2023-02-11T02:36:46.565Z,71.43
2023-02-11T02:37:12.140Z,71.44
2023-02-11T02:37:37.657Z,71.35
2023-02-11T02:38:11.095Z,71.20
2023-02-11T02:38:35.493Z,70.71
2023-02-11T02:38:55.578Z,70.58
2023-02-11T02:39:21.365Z,70.26
2023-02-11T02:39:36.048Z,70.03
2023-02-11T02:39:50.216Z,70.59
2023-02-11T02:40:09.096Z,70.27
2023-02-11T02:40:30.182Z,70.12
2023-02-11T02:40:57.847Z,69.81
2023-02-11T02:41:13.425Z,69.65
2023-02-11T02:41:30.461Z,69.19
2023-02-11T02:41:43.803Z,69.57
2023-02-11T02:41:56.794Z,69.57
2023-02-11T02:42:09.407Z,69.08
2023-02-11T02:42:22.301Z,69.42
2023-02-11T02:42:34.554Z,69.04
2023-02-11T02:42:47.870Z,69.36
2023-02-11T02:43:02.084Z,69.24
2023-02-11T02:43:15.654Z,68.89
2023-02-11T02:43:29.213Z,68.95
2023-02-11T02:43:45.120Z,69.03
2023-02-11T02:43:57.309Z,68.86
2023-02-11T02:44:09.389Z,68.99
2023-02-11T02:44:21.413Z,68.98
2023-02-11T02:44:33.954Z,68.56
2023-02-11T02:44:52.952Z,68.38
2023-02-11T02:45:07.219Z,68.29
2023-02-11T02:45:19.600Z,68.73
2023-02-11T02:45:32.795Z,68.38
2023-02-11T02:45:44.907Z,68.89
2023-02-11T02:46:17.724Z,68.24
2023-02-11T02:46:32.119Z,69.88
2023-02-11T02:46:44.387Z,69.50
2023-02-11T02:46:56.710Z,70.34
2023-02-11T02:47:08.703Z,69.61
2023-02-11T02:47:20.706Z,69.88
2023-02-11T02:47:35.130Z,69.55
2023-02-11T02:47:47.034Z,69.37
2023-02-11T02:47:59.016Z,69.14
2023-02-11T02:48:31.252Z,70.65
2023-02-11T02:48:43.704Z,70.27
2023-02-11T02:48:56.682Z,70.68
2023-02-11T02:49:16.206Z,70.62
2023-02-11T02:49:28.155Z,70.69
2023-02-11T02:49:40.054Z,70.71
2023-02-11T02:49:52.032Z,70.68
2023-02-11T02:50:06.550Z,70.50
2023-02-11T02:50:25.186Z,70.33
2023-02-11T02:50:37.968Z,69.79
2023-02-11T02:50:57.263Z,69.52
2023-02-11T02:51:27.243Z,69.86
2023-02-11T02:52:10.192Z,69.43
2023-02-11T02:52:55.286Z,68.92
2023-02-11T02:53:36.399Z,68.50
2023-02-11T02:54:18.945Z,68.78
2023-02-11T02:54:53.582Z,68.31
2023-02-11T02:55:39.357Z,68.41
2023-02-11T02:56:07.552Z,68.53
2023-02-11T02:56:45.908Z,68.12
2023-02-11T02:57:20.601Z,68.56
2023-02-11T02:57:37.137Z,68.76
2023-02-11T02:57:58.661Z,69.00
2023-02-11T02:58:19.243Z,68.84
2023-02-11T02:58:46.981Z,68.55
2023-02-11T02:59:20.217Z,68.52
2023-02-11T03:00:08.705Z,68.27
2023-02-11T03:00:32.663Z,68.64
2023-02-11T03:00:58.461Z,68.49
2023-02-11T03:01:40.342Z,68.21
2023-02-11T03:02:10.910Z,68.36
2023-02-11T03:02:32.006Z,68.36
2023-02-11T03:02:49.996Z,68.51
2023-02-11T03:03:10.088Z,68.10
2023-02-11T03:03:49.334Z,68.27
2023-02-11T03:04:04.308Z,68.45
2023-02-11T03:04:29.376Z,68.21
2023-02-11T03:04:55.044Z,67.93
2023-02-11T03:05:18.654Z,68.34
2023-02-11T03:05:52.427Z,68.23
2023-02-11T03:06:42.343Z,68.20
2023-02-11T03:07:23.388Z,68.35
2023-02-11T03:07:47.054Z,68.09
2023-02-11T03:08:08.378Z,68.00
2023-02-11T03:08:38.206Z,68.00
2023-02-11T03:09:11.388Z,67.94
2023-02-11T03:09:27.568Z,67.51
2023-02-11T03:09:52.963Z,67.84
2023-02-11T03:10:10.898Z,68.44
2023-02-11T03:10:30.289Z,68.19
2023-02-11T03:10:45.699Z,68.21
2023-02-11T03:11:00.524Z,68.19
2023-02-11T03:11:17.494Z,68.89
2023-02-11T03:11:29.722Z,68.80
2023-02-11T03:11:41.732Z,68.64
2023-02-11T03:11:53.949Z,68.58
2023-02-11T03:12:07.699Z,68.44
2023-02-11T03:12:21.778Z,68.17
2023-02-11T03:12:36.302Z,68.76
2023-02-11T03:12:49.554Z,68.34
2023-02-11T03:13:03.492Z,68.01
2023-02-11T03:13:17.975Z,68.50
2023-02-11T03:13:33.879Z,68.19
2023-02-11T03:13:48.423Z,68.42
2023-02-11T03:14:03.367Z,68.56
2023-02-11T03:14:18.713Z,68.51
2023-02-11T03:14:32.259Z,68.32
2023-02-11T03:14:45.309Z,68.50
2023-02-11T03:14:59.265Z,68.21
2023-02-11T03:15:13.130Z,68.11
2023-02-11T03:15:28.041Z,67.89
2023-02-11T03:15:45.565Z,67.93
2023-02-11T03:16:03.375Z,68.04
2023-02-11T03:16:21.054Z,68.11
2023-02-11T03:16:38.971Z,68.36
2023-02-11T03:16:52.146Z,67.97
2023-02-11T03:17:06.017Z,68.23
2023-02-11T03:17:19.162Z,68.60
2023-02-11T03:17:34.172Z,68.47
2023-02-11T03:17:48.642Z,67.85
2023-02-11T03:18:03.561Z,67.75
2023-02-11T03:18:18.881Z,67.64
2023-02-11T03:18:35.935Z,67.68
2023-02-11T03:18:55.683Z,68.02
2023-02-11T03:19:15.481Z,67.94
2023-02-11T03:19:34.383Z,68.52
2023-02-11T03:19:50.541Z,68.17
2023-02-11T03:20:06.791Z,68.04
2023-02-11T03:20:22.013Z,67.89
2023-02-11T03:20:37.097Z,67.92
2023-02-11T03:20:53.244Z,67.48
2023-02-11T03:21:08.178Z,67.86
2023-02-11T03:21:21.430Z,67.31
2023-02-11T03:21:36.501Z,67.34
2023-02-11T03:21:51.827Z,67.75
2023-02-11T03:22:09.699Z,67.63
2023-02-11T03:22:34.103Z,67.96
2023-02-11T03:22:48.667Z,67.66
2023-02-11T03:23:35.672Z,67.97